SBI5723 UNNT-ZBAD
Flight info
| Callsign | SBI5723 |
|---|---|
| Flight time | N/A |
| Altitude | 37100 |
| Route | OGATI A308 LEKOS P982 DARNO/K0839S1130 Y746 NIXAL G343 TMR W65 TUSLA W64 ELAPU |
| Aircraft | B738/M-SDE2E3FGHIRWXY/LB1 |
Departure
| Time | 2026-05-06 05:42 |
|---|---|
| Airport | Novosibirsk Tolmachevo Airport (UNNT) |
Arrival
| Time | N/A |
|---|---|
| Airport | Beijing Daxing International Airport (ZBAD) |
| Time | Latitude | Longitude | Altitude | Speed | Heading |
|---|---|---|---|---|---|
| 2026-05-06 05:01 | 55.01036 | 82.67140 | 372 ft | 0 kts | 171° |
| 2026-05-06 05:28 | 55.01052 | 82.67136 | 372 ft | 4 kts | 169° |
| 2026-05-06 05:29 | 55.01078 | 82.67126 | 372 ft | 4 kts | 168° |
| 2026-05-06 05:29 | 55.01099 | 82.67119 | 372 ft | 3 kts | 171° |
| 2026-05-06 05:29 | 55.01126 | 82.67115 | 372 ft | 4 kts | 178° |
| 2026-05-06 05:29 | 55.01147 | 82.67113 | 372 ft | 0 kts | 171° |
| 2026-05-06 05:32 | 55.01142 | 82.67114 | 372 ft | 1 kts | 171° |
| 2026-05-06 05:32 | 55.01121 | 82.67120 | 372 ft | 5 kts | 171° |
| 2026-05-06 05:33 | 55.01094 | 82.67084 | 372 ft | 5 kts | 247° |
| 2026-05-06 05:33 | 55.01086 | 82.67020 | 372 ft | 5 kts | 259° |
| 2026-05-06 05:33 | 55.01079 | 82.66948 | 372 ft | 8 kts | 262° |
| 2026-05-06 05:33 | 55.01093 | 82.66858 | 372 ft | 8 kts | 288° |
| 2026-05-06 05:34 | 55.01098 | 82.66738 | 372 ft | 14 kts | 263° |
| 2026-05-06 05:34 | 55.01064 | 82.66564 | 372 ft | 15 kts | 248° |
| 2026-05-06 05:34 | 55.01025 | 82.66396 | 372 ft | 15 kts | 251° |
| 2026-05-06 05:34 | 55.00992 | 82.66233 | 372 ft | 14 kts | 250° |
| 2026-05-06 05:35 | 55.00956 | 82.66080 | 372 ft | 13 kts | 256° |
| 2026-05-06 05:35 | 55.00941 | 82.65930 | 372 ft | 10 kts | 260° |
| 2026-05-06 05:35 | 55.00931 | 82.65810 | 372 ft | 10 kts | 262° |
| 2026-05-06 05:35 | 55.00920 | 82.65687 | 372 ft | 11 kts | 260° |
| 2026-05-06 05:36 | 55.00906 | 82.65548 | 372 ft | 12 kts | 260° |
| 2026-05-06 05:36 | 55.00894 | 82.65404 | 372 ft | 12 kts | 260° |
| 2026-05-06 05:36 | 55.00885 | 82.65252 | 372 ft | 15 kts | 264° |
| 2026-05-06 05:36 | 55.00872 | 82.65061 | 372 ft | 16 kts | 262° |
| 2026-05-06 05:37 | 55.00883 | 82.64919 | 372 ft | 11 kts | 283° |
| 2026-05-06 05:37 | 55.00898 | 82.64789 | 372 ft | 11 kts | 283° |
| 2026-05-06 05:37 | 55.00916 | 82.64664 | 372 ft | 10 kts | 282° |
| 2026-05-06 05:37 | 55.00932 | 82.64539 | 372 ft | 11 kts | 282° |
| 2026-05-06 05:38 | 55.00951 | 82.64387 | 372 ft | 13 kts | 284° |
| 2026-05-06 05:38 | 55.00972 | 82.64228 | 372 ft | 15 kts | 283° |
| 2026-05-06 05:38 | 55.00995 | 82.64050 | 372 ft | 11 kts | 291° |
| 2026-05-06 05:38 | 55.01061 | 82.63998 | 374 ft | 11 kts | 349° |
| 2026-05-06 05:39 | 55.01127 | 82.63946 | 374 ft | 12 kts | 304° |
| 2026-05-06 05:39 | 55.01127 | 82.63787 | 373 ft | 17 kts | 261° |
| 2026-05-06 05:39 | 55.01103 | 82.63523 | 372 ft | 24 kts | 261° |
| 2026-05-06 05:39 | 55.01073 | 82.63200 | 369 ft | 29 kts | 261° |
| 2026-05-06 05:40 | 55.01043 | 82.62859 | 383 ft | 28 kts | 261° |
| 2026-05-06 05:40 | 55.01020 | 82.62602 | 372 ft | 8 kts | 261° |
| 2026-05-06 05:40 | 55.01008 | 82.62510 | 374 ft | 9 kts | 247° |
| 2026-05-06 05:40 | 55.00958 | 82.62413 | 373 ft | 12 kts | 225° |
| 2026-05-06 05:41 | 55.00946 | 82.62289 | 375 ft | 12 kts | 316° |
| 2026-05-06 05:41 | 55.00996 | 82.62349 | 374 ft | 9 kts | 78° |
| 2026-05-06 05:41 | 55.00998 | 82.62368 | 374 ft | 0 kts | 81° |
| 2026-05-06 05:41 | 55.01007 | 82.62466 | 374 ft | 36 kts | 81° |
| 2026-05-06 05:42 | 55.01091 | 82.63384 | 371 ft | 114 kts | 81° |
| 2026-05-06 05:42 | 55.01242 | 82.65138 | 411 ft | 175 kts | 83° |
| 2026-05-06 05:42 | 55.01466 | 82.67379 | 973 ft | 198 kts | 81° |
| 2026-05-06 05:42 | 55.01722 | 82.69838 | 1755 ft | 212 kts | 83° |
| 2026-05-06 05:43 | 55.01972 | 82.72364 | 2671 ft | 212 kts | 82° |
| 2026-05-06 05:43 | 55.02214 | 82.74905 | 3501 ft | 211 kts | 83° |
| 2026-05-06 05:43 | 55.02419 | 82.77461 | 4247 ft | 216 kts | 84° |
| 2026-05-06 05:43 | 55.02610 | 82.80090 | 4911 ft | 221 kts | 84° |
| 2026-05-06 05:44 | 55.02821 | 82.82804 | 5437 ft | 232 kts | 81° |
| 2026-05-06 05:44 | 55.03122 | 82.85705 | 5651 ft | 255 kts | 81° |
| 2026-05-06 05:44 | 55.03460 | 82.88877 | 5862 ft | 278 kts | 80° |
| 2026-05-06 05:44 | 55.03826 | 82.92329 | 6202 ft | 299 kts | 80° |
| 2026-05-06 05:45 | 55.04210 | 82.95939 | 6897 ft | 305 kts | 80° |
| 2026-05-06 05:45 | 55.04601 | 82.99597 | 7622 ft | 309 kts | 80° |
| 2026-05-06 05:45 | 55.05000 | 83.03327 | 8333 ft | 314 kts | 80° |
| 2026-05-06 05:45 | 55.05401 | 83.07099 | 9044 ft | 319 kts | 80° |
| 2026-05-06 05:46 | 55.05805 | 83.10935 | 9776 ft | 323 kts | 80° |
| 2026-05-06 05:46 | 55.06208 | 83.14821 | 10427 ft | 328 kts | 80° |
| 2026-05-06 05:46 | 55.06614 | 83.18781 | 10720 ft | 346 kts | 80° |
| 2026-05-06 05:46 | 55.07049 | 83.23043 | 10920 ft | 366 kts | 80° |
| 2026-05-06 05:47 | 55.07497 | 83.27429 | 11575 ft | 368 kts | 80° |
| 2026-05-06 05:47 | 55.07947 | 83.31847 | 12169 ft | 373 kts | 80° |
| 2026-05-06 05:47 | 55.08406 | 83.36355 | 12681 ft | 380 kts | 80° |
| 2026-05-06 05:47 | 55.08872 | 83.40926 | 13205 ft | 386 kts | 80° |
| 2026-05-06 05:48 | 55.09482 | 83.45516 | 13736 ft | 392 kts | 68° |
| 2026-05-06 05:48 | 55.10659 | 83.49818 | 14225 ft | 394 kts | 60° |
| 2026-05-06 05:48 | 55.12001 | 83.54021 | 14700 ft | 398 kts | 58° |
| 2026-05-06 05:48 | 55.13385 | 83.58236 | 15205 ft | 400 kts | 58° |
| 2026-05-06 05:49 | 55.14764 | 83.62494 | 15731 ft | 406 kts | 63° |
| 2026-05-06 05:49 | 55.15600 | 83.67223 | 16210 ft | 411 kts | 82° |
| 2026-05-06 05:49 | 55.15909 | 83.72198 | 16741 ft | 412 kts | 86° |
| 2026-05-06 05:49 | 55.16108 | 83.77191 | 17224 ft | 412 kts | 88° |
| 2026-05-06 05:50 | 55.16289 | 83.82209 | 17756 ft | 413 kts | 88° |
| 2026-05-06 05:50 | 55.16432 | 83.87240 | 18220 ft | 417 kts | 93° |
| 2026-05-06 05:50 | 55.16006 | 83.92221 | 18410 ft | 423 kts | 111° |
| 2026-05-06 05:50 | 55.14765 | 83.96864 | 18809 ft | 420 kts | 127° |
| 2026-05-06 05:51 | 55.13049 | 84.00969 | 19334 ft | 419 kts | 132° |
| 2026-05-06 05:51 | 55.11303 | 84.05065 | 19812 ft | 422 kts | 131° |
| 2026-05-06 05:51 | 55.09566 | 84.09231 | 20271 ft | 427 kts | 130° |
| 2026-05-06 05:51 | 55.07827 | 84.13453 | 20737 ft | 430 kts | 130° |
| 2026-05-06 05:52 | 55.06076 | 84.17722 | 21190 ft | 436 kts | 130° |
| 2026-05-06 05:52 | 55.04307 | 84.22040 | 21836 ft | 438 kts | 130° |
| 2026-05-06 05:52 | 55.02527 | 84.26382 | 22404 ft | 443 kts | 130° |
| 2026-05-06 05:52 | 55.00723 | 84.30771 | 22776 ft | 447 kts | 130° |
| 2026-05-06 05:53 | 54.98902 | 84.35188 | 23220 ft | 452 kts | 130° |
| 2026-05-06 05:53 | 54.97055 | 84.39658 | 23680 ft | 455 kts | 129° |
| 2026-05-06 05:53 | 54.95204 | 84.44136 | 24129 ft | 455 kts | 130° |
| 2026-05-06 05:53 | 54.93346 | 84.48619 | 24486 ft | 458 kts | 129° |
| 2026-05-06 05:54 | 54.91472 | 84.53132 | 24802 ft | 462 kts | 129° |
| 2026-05-06 05:54 | 54.90043 | 84.56568 | 25051 ft | 464 kts | 129° |
| 2026-05-06 05:54 | 54.88139 | 84.61136 | 25411 ft | 467 kts | 129° |
| 2026-05-06 05:54 | 54.86379 | 84.65882 | 25742 ft | 473 kts | 117° |
| 2026-05-06 05:55 | 54.85390 | 84.71282 | 26047 ft | 480 kts | 99° |
| 2026-05-06 05:55 | 54.85063 | 84.77041 | 26427 ft | 481 kts | 94° |
| 2026-05-06 05:55 | 54.84839 | 84.82847 | 26753 ft | 483 kts | 94° |
| 2026-05-06 05:55 | 54.84603 | 84.88680 | 27038 ft | 486 kts | 95° |
| 2026-05-06 05:56 | 54.84317 | 84.94547 | 27340 ft | 489 kts | 95° |
| 2026-05-06 05:56 | 54.83999 | 85.00428 | 27658 ft | 490 kts | 96° |
| 2026-05-06 05:56 | 54.83671 | 85.06332 | 27967 ft | 492 kts | 96° |
| 2026-05-06 05:56 | 54.83342 | 85.12264 | 28264 ft | 494 kts | 96° |
| 2026-05-06 05:57 | 54.83013 | 85.18226 | 28555 ft | 497 kts | 96° |
| 2026-05-06 05:57 | 54.82682 | 85.24205 | 28843 ft | 499 kts | 96° |
| 2026-05-06 05:57 | 54.82346 | 85.30211 | 29137 ft | 501 kts | 96° |
| 2026-05-06 05:57 | 54.81994 | 85.36224 | 29418 ft | 502 kts | 96° |
| 2026-05-06 05:58 | 54.81628 | 85.42262 | 29681 ft | 504 kts | 96° |
| 2026-05-06 05:58 | 54.81254 | 85.48318 | 29931 ft | 506 kts | 96° |
| 2026-05-06 05:58 | 54.80876 | 85.54401 | 30154 ft | 508 kts | 96° |
| 2026-05-06 05:58 | 54.80497 | 85.60487 | 30447 ft | 508 kts | 96° |
| 2026-05-06 05:59 | 54.80117 | 85.66558 | 30805 ft | 505 kts | 97° |
| 2026-05-06 05:59 | 54.79739 | 85.72598 | 31161 ft | 504 kts | 97° |
| 2026-05-06 05:59 | 54.79357 | 85.78633 | 31460 ft | 503 kts | 97° |
| 2026-05-06 05:59 | 54.78977 | 85.84577 | 31740 ft | 503 kts | 97° |
| 2026-05-06 06:00 | 54.78362 | 85.90524 | 32021 ft | 501 kts | 106° |
| 2026-05-06 06:00 | 54.77279 | 85.96252 | 32326 ft | 497 kts | 116° |
| 2026-05-06 06:00 | 54.75808 | 86.01646 | 32657 ft | 495 kts | 118° |
| 2026-05-06 06:00 | 54.74285 | 86.06981 | 32979 ft | 494 kts | 119° |
| 2026-05-06 06:01 | 54.72758 | 86.12300 | 33272 ft | 493 kts | 119° |
| 2026-05-06 06:01 | 54.71240 | 86.17625 | 33538 ft | 493 kts | 118° |
| 2026-05-06 06:01 | 54.70242 | 86.21158 | 33718 ft | 493 kts | 118° |
| 2026-05-06 06:01 | 54.68244 | 86.28278 | 34078 ft | 491 kts | 118° |
| 2026-05-06 06:02 | 54.66772 | 86.33544 | 34297 ft | 491 kts | 118° |
| 2026-05-06 06:02 | 54.65771 | 86.37128 | 34431 ft | 491 kts | 118° |
| 2026-05-06 06:02 | 54.63801 | 86.44162 | 34692 ft | 490 kts | 118° |
| 2026-05-06 06:02 | 54.62312 | 86.49463 | 34910 ft | 490 kts | 118° |
| 2026-05-06 06:03 | 54.61325 | 86.52967 | 35047 ft | 490 kts | 118° |
| 2026-05-06 06:03 | 54.59836 | 86.58243 | 35243 ft | 489 kts | 118° |
| 2026-05-06 06:03 | 54.58345 | 86.63511 | 35446 ft | 489 kts | 118° |
| 2026-05-06 06:03 | 54.56833 | 86.68843 | 35667 ft | 488 kts | 118° |
| 2026-05-06 06:04 | 54.55361 | 86.74024 | 35885 ft | 487 kts | 118° |
| 2026-05-06 06:04 | 54.53868 | 86.79265 | 36086 ft | 487 kts | 118° |
| 2026-05-06 06:04 | 54.52373 | 86.84506 | 36252 ft | 488 kts | 118° |
| 2026-05-06 06:04 | 54.50875 | 86.89741 | 36434 ft | 487 kts | 118° |
| 2026-05-06 06:05 | 54.49372 | 86.94964 | 36628 ft | 487 kts | 118° |
| 2026-05-06 06:05 | 54.47868 | 87.00173 | 36820 ft | 486 kts | 118° |
| 2026-05-06 06:05 | 54.46361 | 87.05375 | 36968 ft | 487 kts | 118° |
| 2026-05-06 06:05 | 54.44845 | 87.10599 | 36969 ft | 490 kts | 118° |
| 2026-05-06 06:06 | 54.41795 | 87.21078 | 36977 ft | 490 kts | 118° |
| 2026-05-06 06:06 | 54.38757 | 87.31485 | 36975 ft | 484 kts | 118° |
| 2026-05-06 06:07 | 54.35740 | 87.41769 | 36976 ft | 481 kts | 118° |
| 2026-05-06 06:07 | 54.32730 | 87.51985 | 36989 ft | 478 kts | 118° |
| 2026-05-06 06:08 | 54.29721 | 87.62153 | 37000 ft | 482 kts | 118° |
| 2026-05-06 06:08 | 54.26657 | 87.72460 | 37011 ft | 488 kts | 118° |
| 2026-05-06 06:09 | 54.23558 | 87.82844 | 37002 ft | 492 kts | 118° |
| 2026-05-06 06:09 | 54.20469 | 87.93150 | 36987 ft | 486 kts | 118° |
| 2026-05-06 06:10 | 54.17407 | 88.03325 | 36994 ft | 479 kts | 118° |
| 2026-05-06 06:10 | 54.14358 | 88.13406 | 37000 ft | 477 kts | 118° |
| 2026-05-06 06:11 | 54.11314 | 88.23431 | 37012 ft | 476 kts | 118° |
| 2026-05-06 06:11 | 54.08262 | 88.33440 | 37017 ft | 476 kts | 118° |
| 2026-05-06 06:12 | 54.05195 | 88.43457 | 37012 ft | 478 kts | 118° |
| 2026-05-06 06:12 | 54.02104 | 88.53510 | 37010 ft | 480 kts | 118° |
| 2026-05-06 06:13 | 53.98993 | 88.63589 | 37003 ft | 482 kts | 118° |
| 2026-05-06 06:13 | 53.95857 | 88.73711 | 37017 ft | 484 kts | 118° |
| 2026-05-06 06:14 | 53.92704 | 88.83829 | 37023 ft | 486 kts | 118° |
| 2026-05-06 06:14 | 53.89497 | 88.93969 | 37017 ft | 488 kts | 119° |
| 2026-05-06 06:15 | 53.86271 | 89.04100 | 37020 ft | 489 kts | 119° |
| 2026-05-06 06:15 | 53.83033 | 89.14241 | 37023 ft | 489 kts | 119° |
| 2026-05-06 06:16 | 53.79813 | 89.24298 | 37022 ft | 489 kts | 119° |
| 2026-05-06 06:16 | 53.76549 | 89.34451 | 37029 ft | 488 kts | 119° |
| 2026-05-06 06:17 | 53.73324 | 89.44438 | 37034 ft | 487 kts | 119° |
| 2026-05-06 06:17 | 53.70072 | 89.54467 | 37034 ft | 487 kts | 119° |
| 2026-05-06 06:18 | 53.66813 | 89.64479 | 37049 ft | 486 kts | 119° |
| 2026-05-06 06:18 | 53.63550 | 89.74463 | 37044 ft | 486 kts | 119° |
| 2026-05-06 06:19 | 53.60274 | 89.84446 | 37047 ft | 487 kts | 119° |
| 2026-05-06 06:19 | 53.56990 | 89.94410 | 37048 ft | 487 kts | 119° |
| 2026-05-06 06:20 | 53.53697 | 90.04368 | 37064 ft | 487 kts | 119° |
| 2026-05-06 06:20 | 53.50393 | 90.14317 | 37059 ft | 488 kts | 119° |
| 2026-05-06 06:21 | 53.47069 | 90.24268 | 37065 ft | 489 kts | 119° |
| 2026-05-06 06:21 | 53.43731 | 90.34213 | 37068 ft | 490 kts | 119° |
| 2026-05-06 06:22 | 53.40380 | 90.44165 | 37058 ft | 490 kts | 119° |
| 2026-05-06 06:22 | 53.37040 | 90.54048 | 37070 ft | 491 kts | 119° |
| 2026-05-06 06:23 | 53.33668 | 90.63985 | 37069 ft | 491 kts | 119° |
| 2026-05-06 06:23 | 53.30289 | 90.73901 | 37077 ft | 491 kts | 119° |
| 2026-05-06 06:24 | 53.26901 | 90.83805 | 37073 ft | 491 kts | 119° |
| 2026-05-06 06:24 | 53.23506 | 90.93692 | 37080 ft | 490 kts | 119° |
| 2026-05-06 06:25 | 53.20104 | 91.03560 | 37076 ft | 490 kts | 119° |
| 2026-05-06 06:26 | 53.14999 | 91.18292 | 37083 ft | 489 kts | 119° |
| 2026-05-06 06:26 | 53.11590 | 91.28086 | 37085 ft | 488 kts | 119° |
| 2026-05-06 06:27 | 53.08183 | 91.37839 | 37091 ft | 487 kts | 119° |
| 2026-05-06 06:27 | 53.04765 | 91.47563 | 37091 ft | 487 kts | 119° |
| 2026-05-06 06:28 | 53.01337 | 91.57271 | 37085 ft | 487 kts | 120° |
| 2026-05-06 06:28 | 52.97925 | 91.66902 | 37088 ft | 487 kts | 120° |
| 2026-05-06 06:29 | 52.94484 | 91.76581 | 37100 ft | 487 kts | 120° |
| 2026-05-06 06:29 | 52.91032 | 91.86254 | 37093 ft | 488 kts | 120° |
| 2026-05-06 06:30 | 52.87565 | 91.95935 | 37102 ft | 489 kts | 120° |
| 2026-05-06 06:30 | 52.84083 | 92.05619 | 37096 ft | 489 kts | 120° |
| 2026-05-06 06:31 | 52.80588 | 92.15299 | 37103 ft | 490 kts | 120° |
| 2026-05-06 06:31 | 52.77102 | 92.24918 | 37107 ft | 491 kts | 120° |
| 2026-05-06 06:32 | 52.73592 | 92.34566 | 37119 ft | 490 kts | 120° |